Time;durP1;ratioP1;P1;durP2;ratioP2;P2;SDS_P1;SDS_P2;PMS_P1;PMS_P2;Temp;Humidity;BMP_temperature;BMP_pressure;BME280_temperature;BME280_humidity;BME280_pressure;Samples;Min_cycle;Max_cycle;Signal;HPM_P1;HPM_P2
2022/08/29 00:01:42;;;;;;;9.75;6.55;;;19.50;99.90;;;;;;5029770;28;20177;-71
2022/08/29 00:04:08;;;;;;;7.18;6.65;;;19.60;99.90;;;;;;5028724;28;20183;-71
2022/08/29 00:06:34;;;;;;;7.72;6.90;;;19.50;99.90;;;;;;5027253;28;20582;-73
2022/08/29 00:08:59;;;;;;;8.38;7.63;;;19.50;99.90;;;;;;5021642;28;20216;-74
2022/08/29 00:11:25;;;;;;;11.55;7.78;;;19.40;99.90;;;;;;5031227;28;20251;-75
2022/08/29 00:13:51;;;;;;;8.10;7.15;;;19.50;99.90;;;;;;5024945;28;20189;-75
2022/08/29 00:16:17;;;;;;;8.07;7.35;;;19.40;99.90;;;;;;5018755;28;20246;-74
2022/08/29 00:18:43;;;;;;;9.80;7.70;;;19.40;99.90;;;;;;5027318;28;20200;-75
2022/08/29 00:21:09;;;;;;;8.50;7.78;;;19.40;99.90;;;;;;5022397;28;20268;-74
2022/08/29 00:23:35;;;;;;;8.77;7.97;;;19.50;99.90;;;;;;5030045;28;20266;-76
2022/08/29 00:26:01;;;;;;;9.05;8.00;;;19.50;99.90;;;;;;5020681;28;20224;-75
2022/08/29 00:28:26;;;;;;;7.85;7.15;;;19.50;99.90;;;;;;5025905;28;20212;-74
2022/08/29 00:30:52;;;;;;;7.45;6.75;;;19.50;99.90;;;;;;5017429;28;20192;-74
2022/08/29 00:33:18;;;;;;;7.18;6.50;;;19.50;99.90;;;;;;5021810;28;20185;-74
2022/08/29 00:35:45;;;;;;;7.75;7.05;;;19.60;99.90;;;;;;5021496;28;20823;-74
2022/08/29 00:38:13;;;;;;;9.75;7.60;;;19.50;99.90;;;;;;5019184;28;20221;-74
2022/08/29 00:40:43;;;;;;;8.05;7.15;;;19.60;99.90;;;;;;5017374;28;20177;-74
2022/08/29 00:43:09;;;;;;;7.82;7.18;;;19.50;99.90;;;;;;5019313;28;20205;-74
2022/08/29 00:45:39;;;;;;;7.68;6.97;;;19.50;99.90;;;;;;5017765;28;20170;-74
2022/08/29 00:48:13;;;;;;;10.23;7.38;;;19.50;99.90;;;;;;5023506;28;20201;-74
2022/08/29 00:50:55;;;;;;;7.70;6.95;;;19.50;99.90;;;;;;5024321;28;20192;-75
2022/08/29 00:53:30;;;;;;;9.35;7.40;;;19.40;99.90;;;;;;5019368;28;20185;-75
2022/08/29 00:55:56;;;;;;;7.72;7.03;;;19.40;99.90;;;;;;5022509;28;20184;-74
2022/08/29 00:58:28;;;;;;;8.43;7.63;;;19.30;99.90;;;;;;5016726;28;20288;-74
2022/08/29 01:00:54;;;;;;;8.27;7.45;;;19.30;99.90;;;;;;5019565;28;20201;-74
2022/08/29 01:03:20;;;;;;;8.95;8.05;;;19.20;99.90;;;;;;5017197;28;20209;-74
2022/08/29 01:05:46;;;;;;;7.63;6.90;;;19.20;99.90;;;;;;5017455;28;20266;-74
2022/08/29 01:08:12;;;;;;;11.23;7.03;;;19.20;99.90;;;;;;5023380;28;20205;-74
2022/08/29 01:13:27;;;;;;;9.25;7.25;;;19.10;99.90;;;;;;5023320;28;20211;-74
2022/08/29 01:15:55;;;;;;;8.52;7.65;;;19.10;99.90;;;;;;5025018;28;20268;-75
2022/08/29 01:18:22;;;;;;;7.88;7.18;;;19.00;99.90;;;;;;5023506;28;20204;-75
2022/08/29 01:20:50;;;;;;;7.93;7.25;;;19.00;99.90;;;;;;5028794;28;20177;-74
2022/08/29 01:23:25;;;;;;;7.13;6.53;;;19.00;99.90;;;;;;5024451;28;20184;-74
2022/08/29 01:25:51;;;;;;;7.60;6.95;;;19.00;99.90;;;;;;5021129;28;20188;-74
2022/08/29 01:28:31;;;;;;;7.57;6.88;;;18.90;99.90;;;;;;5026457;28;20200;-74
2022/08/29 01:30:59;;;;;;;7.22;6.57;;;18.90;99.90;;;;;;5026147;28;20651;-74
2022/08/29 01:33:26;;;;;;;8.13;7.22;;;18.90;99.90;;;;;;5025643;28;20187;-75
2022/08/29 01:35:51;;;;;;;8.13;6.90;;;18.90;99.90;;;;;;5026536;28;20184;-75
2022/08/29 01:38:26;;;;;;;8.07;7.28;;;18.90;99.90;;;;;;5026797;28;20200;-75
2022/08/29 01:40:57;;;;;;;8.95;7.22;;;18.90;99.90;;;;;;5022118;28;20176;-74
2022/08/29 01:43:24;;;;;;;8.10;7.20;;;18.90;99.90;;;;;;5017542;28;20169;-74
2022/08/29 01:45:50;;;;;;;6.90;6.30;;;18.90;99.90;;;;;;5019260;28;20256;-74
2022/08/29 01:48:17;;;;;;;8.70;7.68;;;18.90;99.90;;;;;;5024028;28;20341;-74
2022/08/29 01:50:44;;;;;;;7.72;6.88;;;19.00;99.90;;;;;;5020037;28;20193;-74
2022/08/29 01:53:09;;;;;;;7.82;7.07;;;19.00;99.90;;;;;;5023171;28;20257;-74
2022/08/29 01:55:36;;;;;;;7.22;6.40;;;19.10;99.90;;;;;;5019590;28;20222;-74
2022/08/29 01:58:02;;;;;;;9.48;6.80;;;19.00;99.90;;;;;;5026003;28;20239;-74
2022/08/29 02:00:28;;;;;;;10.02;6.90;;;19.10;99.90;;;;;;5023382;28;20173;-74
2022/08/29 02:02:55;;;;;;;7.95;7.15;;;19.20;99.90;;;;;;5021939;28;20185;-74
2022/08/29 02:08:44;;;;;;;6.95;6.32;;;19.10;99.90;;;;;;5020522;28;20250;-74
2022/08/29 02:11:11;;;;;;;7.43;6.72;;;19.00;99.90;;;;;;5039168;28;20181;-74
2022/08/29 02:13:40;;;;;;;6.45;5.95;;;19.00;99.90;;;;;;5044061;28;20279;-74
2022/08/29 02:16:06;;;;;;;7.78;7.03;;;18.90;99.90;;;;;;5035829;28;20180;-74
2022/08/29 02:18:32;;;;;;;8.43;6.80;;;18.90;99.90;;;;;;5019994;28;20219;-74
2022/08/29 02:20:58;;;;;;;9.85;7.38;;;18.90;99.90;;;;;;5027863;28;20181;-75
2022/08/29 02:23:23;;;;;;;6.85;6.35;;;18.90;99.90;;;;;;5029053;28;20219;-75
2022/08/29 02:25:49;;;;;;;9.90;7.22;;;18.90;99.90;;;;;;5031920;28;20188;-75
2022/08/29 02:28:17;;;;;;;9.88;6.78;;;18.80;99.90;;;;;;5022939;28;20250;-75
2022/08/29 02:30:45;;;;;;;7.85;6.93;;;18.80;99.90;;;;;;5026569;28;20657;-74
2022/08/29 02:33:14;;;;;;;8.48;7.28;;;18.70;99.90;;;;;;5029491;28;20327;-74
2022/08/29 02:35:41;;;;;;;12.52;7.70;;;18.70;99.90;;;;;;5027917;28;20213;-74
2022/08/29 02:38:07;;;;;;;8.80;7.25;;;18.60;99.90;;;;;;5028463;28;20579;-74
2022/08/29 02:40:33;;;;;;;7.18;6.47;;;18.50;99.90;;;;;;5026989;28;20181;-75
2022/08/29 02:42:59;;;;;;;6.97;6.38;;;18.50;99.90;;;;;;5031974;28;20192;-74
2022/08/29 02:45:25;;;;;;;8.43;7.22;;;18.50;99.90;;;;;;5030694;28;20643;-74
2022/08/29 02:47:52;;;;;;;7.55;6.90;;;18.50;99.90;;;;;;5024087;28;20251;-74
2022/08/29 02:50:18;;;;;;;8.07;6.63;;;18.40;99.90;;;;;;5033962;28;20212;-75
2022/08/29 02:52:44;;;;;;;8.65;7.85;;;18.40;99.90;;;;;;5034662;28;20190;-75
2022/08/29 02:55:16;;;;;;;8.77;7.57;;;18.40;99.90;;;;;;5024340;28;20184;-75
2022/08/29 02:57:42;;;;;;;9.40;7.60;;;18.40;99.90;;;;;;5031800;28;20220;-74
2022/08/29 03:00:11;;;;;;;7.22;6.60;;;18.40;99.90;;;;;;5032279;28;20177;-74
2022/08/29 03:02:38;;;;;;;8.05;7.30;;;18.40;99.90;;;;;;5028615;28;20600;-75
2022/08/29 03:05:04;;;;;;;8.18;7.38;;;18.50;99.90;;;;;;5026213;28;20260;-75
2022/08/29 03:07:30;;;;;;;7.60;6.90;;;18.40;99.90;;;;;;5028917;28;20220;-75
2022/08/29 03:09:56;;;;;;;7.40;6.80;;;18.30;99.90;;;;;;5028212;28;20254;-76
2022/08/29 03:12:22;;;;;;;8.05;7.25;;;18.30;99.90;;;;;;5031052;28;20180;-74
2022/08/29 03:14:48;;;;;;;7.68;6.93;;;18.30;99.90;;;;;;5025324;28;20606;-73
2022/08/29 03:17:13;;;;;;;9.48;7.15;;;18.30;99.90;;;;;;5021768;28;20187;-74
2022/08/29 03:19:39;;;;;;;8.90;7.82;;;18.30;99.90;;;;;;5026023;28;20196;-74
2022/08/29 03:22:04;;;;;;;8.18;7.38;;;18.30;99.90;;;;;;5032826;28;20180;-74
2022/08/29 03:24:31;;;;;;;10.98;7.47;;;18.30;99.90;;;;;;5024976;28;20211;-75
2022/08/29 03:26:57;;;;;;;7.22;6.53;;;18.30;99.90;;;;;;5030743;28;20219;-75
2022/08/29 03:29:24;;;;;;;9.35;7.00;;;18.30;99.90;;;;;;5024674;28;20197;-76
2022/08/29 03:31:50;;;;;;;9.15;7.38;;;18.30;99.90;;;;;;5022322;28;20263;-75
2022/08/29 03:34:15;;;;;;;11.55;7.65;;;18.30;99.90;;;;;;5026664;28;20302;-75
2022/08/29 03:36:41;;;;;;;9.30;7.40;;;18.40;99.90;;;;;;5021646;28;20529;-75
2022/08/29 03:39:06;;;;;;;7.25;6.75;;;18.30;99.90;;;;;;5026115;28;20239;-75
2022/08/29 03:41:33;;;;;;;11.40;7.53;;;18.30;99.90;;;;;;5032517;28;20198;-75
2022/08/29 03:43:59;;;;;;;8.85;7.47;;;18.40;99.90;;;;;;5026432;28;20187;-74
2022/08/29 03:46:25;;;;;;;9.10;6.85;;;18.40;99.90;;;;;;5020302;28;20177;-74
2022/08/29 03:48:51;;;;;;;8.60;7.70;;;18.20;99.90;;;;;;5022933;28;20252;-74
2022/08/29 03:51:18;;;;;;;8.50;7.70;;;18.20;99.90;;;;;;5018270;28;20644;-74
2022/08/29 03:53:44;;;;;;;9.50;8.45;;;18.10;99.90;;;;;;5016015;28;20280;-74
2022/08/29 03:56:10;;;;;;;8.60;7.68;;;18.00;99.90;;;;;;5023747;28;20678;-74
2022/08/29 03:58:36;;;;;;;9.13;8.10;;;18.00;99.90;;;;;;5026063;28;20215;-74
2022/08/29 04:01:03;;;;;;;9.43;8.30;;;17.90;99.90;;;;;;5027577;28;20176;-74
2022/08/29 04:03:28;;;;;;;9.88;8.52;;;17.70;99.90;;;;;;5019542;28;20187;-74
2022/08/29 04:05:54;;;;;;;10.18;8.43;;;17.70;99.90;;;;;;5019266;28;20280;-74
2022/08/29 04:08:20;;;;;;;10.60;8.00;;;17.50;99.90;;;;;;5020784;28;20231;-74
2022/08/29 04:10:45;;;;;;;9.77;8.68;;;17.50;99.90;;;;;;5021675;28;20647;-75
2022/08/29 04:13:11;;;;;;;8.90;8.05;;;17.40;99.90;;;;;;5017566;28;20223;-75
2022/08/29 04:15:41;;;;;;;8.35;7.55;;;17.40;99.90;;;;;;5018417;28;20635;-75
2022/08/29 04:18:08;;;;;;;8.98;8.10;;;17.30;99.90;;;;;;5024070;28;20212;-75
2022/08/29 04:20:37;;;;;;;11.50;9.55;;;17.30;99.90;;;;;;5015577;28;20185;-76
2022/08/29 04:23:03;;;;;;;10.10;8.02;;;17.20;99.90;;;;;;5020136;28;20209;-75
2022/08/29 04:25:35;;;;;;;9.60;7.85;;;17.10;99.90;;;;;;5016903;28;20176;-75
2022/08/29 04:28:06;;;;;;;9.35;8.45;;;17.10;99.90;;;;;;5020263;28;20289;-75
2022/08/29 04:30:32;;;;;;;9.27;8.48;;;17.00;99.90;;;;;;5018661;28;20185;-74
2022/08/29 04:32:58;;;;;;;8.90;8.07;;;17.00;99.90;;;;;;5016108;28;20192;-73
2022/08/29 04:35:24;;;;;;;9.35;8.52;;;17.00;99.90;;;;;;5018806;28;20655;-74
2022/08/29 04:37:49;;;;;;;9.88;8.55;;;17.00;99.90;;;;;;5016637;28;20216;-74
2022/08/29 04:40:18;;;;;;;9.32;7.82;;;17.00;99.90;;;;;;5017373;28;20702;-75
2022/08/29 04:42:45;;;;;;;10.15;9.15;;;17.00;99.90;;;;;;5020538;28;20216;-74
2022/08/29 04:45:13;;;;;;;14.10;8.90;;;17.00;99.90;;;;;;5017344;28;20175;-74
2022/08/29 04:47:41;;;;;;;9.75;8.85;;;16.90;99.90;;;;;;5016774;28;20236;-74
2022/08/29 04:50:09;;;;;;;10.45;9.45;;;16.90;99.90;;;;;;5023855;28;20185;-74
2022/08/29 04:52:35;;;;;;;10.93;9.82;;;16.90;99.90;;;;;;5018126;28;20193;-74
2022/08/29 04:55:02;;;;;;;10.50;9.48;;;16.80;99.90;;;;;;5021069;28;20177;-74
2022/08/29 04:57:28;;;;;;;12.38;9.55;;;16.80;99.90;;;;;;5025313;28;20578;-74
2022/08/29 04:59:57;;;;;;;10.00;9.10;;;16.80;99.90;;;;;;5027448;28;20195;-75
2022/08/29 05:02:23;;;;;;;10.90;9.80;;;16.70;99.90;;;;;;5019719;28;20198;-76
2022/08/29 05:04:53;;;;;;;10.40;9.50;;;16.70;99.90;;;;;;5017470;28;20665;-74
2022/08/29 05:07:19;;;;;;;11.18;10.18;;;16.70;99.90;;;;;;5022500;28;20173;-76
2022/08/29 05:09:48;;;;;;;11.40;9.68;;;16.70;99.90;;;;;;5023658;28;20177;-77
2022/08/29 05:12:13;;;;;;;10.20;9.02;;;16.70;99.90;;;;;;5026226;28;20191;-76
2022/08/29 05:14:39;;;;;;;9.70;8.80;;;16.70;99.90;;;;;;5019998;28;20671;-77
2022/08/29 05:17:04;;;;;;;10.55;9.55;;;16.70;99.90;;;;;;5022333;28;20189;-77
2022/08/29 05:19:30;;;;;;;9.98;8.73;;;16.70;99.90;;;;;;5021753;28;20200;-76
2022/08/29 05:21:57;;;;;;;10.70;9.60;;;16.70;99.90;;;;;;5018401;28;20181;-77
2022/08/29 05:24:23;;;;;;;14.05;10.23;;;16.70;99.90;;;;;;5022749;28;20188;-75
2022/08/29 05:26:50;;;;;;;11.23;9.43;;;16.70;99.90;;;;;;5025252;28;20181;-75
2022/08/29 05:29:16;;;;;;;9.65;8.70;;;16.80;99.90;;;;;;5025086;28;20200;-74
2022/08/29 05:31:42;;;;;;;10.02;8.65;;;16.90;99.90;;;;;;5018829;28;20264;-74
2022/08/29 05:34:10;;;;;;;15.13;9.65;;;16.90;99.90;;;;;;5019176;28;20177;-74
2022/08/29 05:36:35;;;;;;;10.13;9.07;;;17.00;99.90;;;;;;5018876;28;20183;-74
2022/08/29 05:39:02;;;;;;;11.65;9.35;;;17.00;99.90;;;;;;5025785;28;20299;-74
2022/08/29 05:41:28;;;;;;;10.07;9.18;;;17.00;99.90;;;;;;5021112;28;20174;-74
2022/08/29 05:43:54;;;;;;;9.88;8.98;;;17.10;99.90;;;;;;5016686;28;20552;-74
2022/08/29 05:46:20;;;;;;;10.02;8.95;;;17.20;99.90;;;;;;5018899;28;20169;-73
2022/08/29 05:48:46;;;;;;;10.60;9.63;;;17.30;99.90;;;;;;5022299;28;20238;-75
2022/08/29 05:51:17;;;;;;;14.10;9.57;;;17.30;99.90;;;;;;5021149;28;20185;-74
2022/08/29 05:53:43;;;;;;;12.40;10.30;;;17.40;99.90;;;;;;5024179;28;20184;-74
2022/08/29 05:56:08;;;;;;;10.48;9.27;;;17.50;99.90;;;;;;5024267;28;20237;-75
2022/08/29 05:58:34;;;;;;;10.70;9.57;;;17.70;99.90;;;;;;5018580;28;20213;-74
2022/08/29 06:01:00;;;;;;;10.27;8.27;;;17.70;99.90;;;;;;5021340;28;20592;-74
2022/08/29 06:03:25;;;;;;;10.55;9.55;;;17.70;99.90;;;;;;5019021;28;20311;-75
2022/08/29 06:05:51;;;;;;;10.00;8.98;;;17.70;99.90;;;;;;5020499;28;20177;-74
2022/08/29 06:08:19;;;;;;;10.43;9.10;;;17.80;99.90;;;;;;5016723;28;20295;-74
2022/08/29 06:10:45;;;;;;;10.80;8.98;;;17.90;99.90;;;;;;5015900;28;20608;-74
2022/08/29 06:13:11;;;;;;;11.48;9.82;;;18.00;99.90;;;;;;5014113;28;20937;-74
2022/08/29 06:15:41;;;;;;;10.70;9.80;;;18.10;99.90;;;;;;5018228;28;20191;-74
2022/08/29 06:18:06;;;;;;;10.25;9.25;;;18.20;99.90;;;;;;5017470;28;20935;-75
2022/08/29 06:20:32;;;;;;;10.50;9.40;;;18.30;99.90;;;;;;5018080;28;20234;-76
2022/08/29 06:22:57;;;;;;;14.70;9.18;;;18.30;99.90;;;;;;5022125;28;20189;-75
2022/08/29 06:25:23;;;;;;;11.63;9.60;;;18.40;99.90;;;;;;5019525;28;20173;-76
2022/08/29 06:27:52;;;;;;;8.70;7.93;;;18.50;99.90;;;;;;5024007;28;20702;-76
2022/08/29 06:30:18;;;;;;;10.20;9.30;;;18.50;99.90;;;;;;5023217;28;20180;-76
2022/08/29 06:32:44;;;;;;;10.35;8.75;;;18.60;99.90;;;;;;5025778;28;20268;-75
2022/08/29 06:35:10;;;;;;;10.52;9.35;;;18.60;99.90;;;;;;5027290;28;20778;-75
2022/08/29 06:37:35;;;;;;;12.40;9.25;;;18.70;99.90;;;;;;5025083;28;20749;-81
2022/08/29 06:40:02;;;;;;;9.65;8.68;;;18.70;99.90;;;;;;5027459;28;20172;-77
2022/08/29 06:42:28;;;;;;;10.13;9.10;;;18.80;99.90;;;;;;5023841;28;20657;-77
2022/08/29 06:44:54;;;;;;;10.18;9.23;;;18.90;99.90;;;;;;5028863;28;20191;-78
2022/08/29 06:47:20;;;;;;;9.55;8.38;;;19.00;99.90;;;;;;5023390;28;20173;-78
2022/08/29 06:49:45;;;;;;;10.98;8.63;;;19.10;99.90;;;;;;5032589;28;20575;-77
2022/08/29 06:52:12;;;;;;;9.25;8.45;;;19.20;99.90;;;;;;5017724;28;20250;-76
2022/08/29 06:54:37;;;;;;;9.88;8.50;;;19.40;99.90;;;;;;5019519;28;20173;-77
2022/08/29 06:57:03;;;;;;;9.05;7.97;;;19.50;99.90;;;;;;5019473;28;20318;-77
2022/08/29 06:59:28;;;;;;;10.90;9.82;;;19.70;99.90;;;;;;5030586;28;20212;-76
2022/08/29 07:01:54;;;;;;;10.98;9.88;;;19.80;99.90;;;;;;5024156;28;20190;-76
2022/08/29 07:04:20;;;;;;;10.82;9.70;;;19.80;99.90;;;;;;5025415;28;20256;-75
2022/08/29 07:06:46;;;;;;;11.35;9.20;;;19.80;99.90;;;;;;5025330;28;20180;-73
2022/08/29 07:09:12;;;;;;;8.98;8.15;;;19.80;99.90;;;;;;5019308;28;20227;-74
2022/08/29 07:11:39;;;;;;;13.35;9.93;;;19.90;99.90;;;;;;5020543;28;20184;-74
2022/08/29 07:14:05;;;;;;;10.40;9.40;;;20.00;99.90;;;;;;5027738;28;20197;-74
2022/08/29 07:16:34;;;;;;;12.30;10.18;;;20.20;99.90;;;;;;5021655;28;20196;-74
2022/08/29 07:19:01;;;;;;;9.77;8.80;;;20.30;99.90;;;;;;5024200;28;20638;-74
2022/08/29 07:21:26;;;;;;;9.75;8.75;;;20.50;99.90;;;;;;5021631;28;20181;-74
2022/08/29 07:23:54;;;;;;;10.95;9.73;;;20.70;99.90;;;;;;5027255;28;20757;-74
2022/08/29 07:26:41;;;;;;;10.88;9.35;;;20.70;99.90;;;;;;5020620;28;20205;-74
2022/08/29 07:29:14;;;;;;;10.85;9.48;;;20.80;99.90;;;;;;5025549;28;20239;-74
2022/08/29 07:31:40;;;;;;;10.73;9.20;;;20.90;99.90;;;;;;5019087;28;20181;-74
2022/08/29 07:34:07;;;;;;;9.95;9.05;;;20.90;99.90;;;;;;5036505;28;20237;-74
2022/08/29 07:36:33;;;;;;;15.48;10.10;;;20.90;99.90;;;;;;5029452;28;20184;-74
2022/08/29 07:39:00;;;;;;;14.80;10.00;;;21.10;99.90;;;;;;5029793;28;20220;-74
2022/08/29 07:41:27;;;;;;;13.98;10.20;;;21.10;99.90;;;;;;5031356;28;20576;-74
2022/08/29 07:43:53;;;;;;;13.73;10.57;;;21.30;99.90;;;;;;5032673;28;20283;-74
2022/08/29 07:46:19;;;;;;;10.68;9.60;;;21.50;99.90;;;;;;5021923;28;20272;-74
2022/08/29 07:48:45;;;;;;;10.43;9.60;;;21.60;99.90;;;;;;5021414;28;20213;-74
2022/08/29 07:51:16;;;;;;;11.15;10.07;;;21.80;99.90;;;;;;5033515;28;20203;-74
2022/08/29 07:53:43;;;;;;;11.10;10.00;;;21.90;99.90;;;;;;5031064;28;20263;-72
2022/08/29 07:56:12;;;;;;;10.52;9.43;;;22.10;99.90;;;;;;5026714;28;20251;-72
2022/08/29 07:58:38;;;;;;;11.13;10.02;;;22.20;99.90;;;;;;5025546;28;20765;-72
2022/08/29 08:01:04;;;;;;;11.52;9.95;;;22.30;99.90;;;;;;5028188;28;20182;-72
2022/08/29 08:03:32;;;;;;;12.23;11.10;;;22.50;99.90;;;;;;5026252;28;20211;-72
2022/08/29 08:05:58;;;;;;;11.25;10.23;;;22.60;99.90;;;;;;5028225;28;20176;-72
2022/08/29 08:08:24;;;;;;;10.65;9.30;;;22.50;99.90;;;;;;5035948;28;20196;-72
2022/08/29 08:10:50;;;;;;;10.98;9.70;;;22.70;99.90;;;;;;5028554;28;20734;-72
2022/08/29 08:13:16;;;;;;;10.60;9.60;;;22.80;99.90;;;;;;5023132;28;20556;-72
2022/08/29 08:15:41;;;;;;;11.73;10.52;;;22.90;99.90;;;;;;5022222;28;20669;-72
2022/08/29 08:18:07;;;;;;;9.88;8.98;;;23.10;99.90;;;;;;5025603;28;20224;-72
2022/08/29 08:20:34;;;;;;;12.00;8.60;;;23.40;99.90;;;;;;5024737;28;20514;-72
2022/08/29 08:22:59;;;;;;;10.82;8.90;;;23.60;99.90;;;;;;5026151;28;20235;-72
2022/08/29 08:25:25;;;;;;;8.77;8.07;;;23.80;99.90;;;;;;5027070;28;20175;-72
2022/08/29 08:27:51;;;;;;;8.75;7.93;;;24.00;99.90;;;;;;5030475;28;20220;-72
2022/08/29 08:30:18;;;;;;;7.97;7.30;;;24.20;99.90;;;;;;5035362;28;20196;-72
2022/08/29 08:32:44;;;;;;;8.85;7.97;;;24.20;99.90;;;;;;5026240;28;20281;-72
2022/08/29 08:35:11;;;;;;;8.20;7.38;;;24.20;99.90;;;;;;5028235;28;20185;-72
2022/08/29 08:37:41;;;;;;;10.13;8.32;;;24.20;99.90;;;;;;5033478;28;20216;-72
2022/08/29 08:40:07;;;;;;;12.43;7.43;;;24.50;99.90;;;;;;5024960;28;20656;-72
2022/08/29 08:42:42;;;;;;;8.32;7.53;;;24.70;99.90;;;;;;5019506;28;20181;-72
2022/08/29 08:45:21;;;;;;;7.72;6.85;;;24.90;99.90;;;;;;5029210;28;20184;-72
2022/08/29 08:47:51;;;;;;;8.05;7.30;;;25.20;99.90;;;;;;5019248;28;20200;-72
2022/08/29 08:50:27;;;;;;;8.73;8.07;;;25.30;99.90;;;;;;5019544;28;20289;-72
2022/08/29 08:52:57;;;;;;;7.35;6.68;;;25.00;99.90;;;;;;5027686;28;20180;-72
2022/08/29 08:55:41;;;;;;;7.95;7.35;;;24.80;99.90;;;;;;5024181;28;20566;-72
2022/08/29 08:58:32;;;;;;;6.68;6.07;;;24.90;99.90;;;;;;5023830;28;20290;-72
2022/08/29 09:01:15;;;;;;;8.27;7.47;;;25.20;99.90;;;;;;5028917;28;20530;-72
2022/08/29 09:03:49;;;;;;;6.75;6.20;;;25.30;99.90;;;;;;5026903;28;20181;-72
2022/08/29 09:06:25;;;;;;;7.95;7.22;;;25.70;99.90;;;;;;5027138;28;20635;-72
2022/08/29 09:09:04;;;;;;;7.28;6.68;;;25.90;99.90;;;;;;5024336;28;20291;-72
2022/08/29 09:11:53;;;;;;;7.15;6.45;;;26.70;99.90;;;;;;5025373;28;20555;-72
2022/08/29 09:14:34;;;;;;;6.47;5.97;;;28.30;99.90;;;;;;5031698;28;20223;-72
2022/08/29 09:17:01;;;;;;;6.70;5.53;;;30.20;99.90;;;;;;5026210;28;20191;-72
2022/08/29 09:19:27;;;;;;;7.13;6.32;;;31.60;95.70;;;;;;5029303;28;20555;-72
2022/08/29 09:21:59;;;;;;;4.70;4.40;;;32.90;89.20;;;;;;5028253;28;20594;-72
2022/08/29 09:24:33;;;;;;;4.90;4.50;;;34.10;83.50;;;;;;5022799;28;20575;-72
2022/08/29 09:26:58;;;;;;;5.25;4.85;;;35.00;76.50;;;;;;5035880;28;20546;-72
2022/08/29 09:29:29;;;;;;;5.50;5.10;;;35.60;72.50;;;;;;5024384;28;20191;-72
2022/08/29 09:32:13;;;;;;;5.20;4.80;;;36.10;70.30;;;;;;5021527;28;20180;-70
2022/08/29 09:34:43;;;;;;;5.60;4.78;;;36.80;65.50;;;;;;5017600;28;20185;-70
2022/08/29 09:37:21;;;;;;;5.07;4.55;;;37.40;62.60;;;;;;5028270;28;20188;-70
2022/08/29 09:40:09;;;;;;;5.25;4.72;;;37.30;61.60;;;;;;5023392;28;20535;-69
2022/08/29 09:42:40;;;;;;;4.95;4.60;;;37.30;62.10;;;;;;5026010;28;20747;-70
2022/08/29 09:45:23;;;;;;;4.90;4.50;;;37.40;62.00;;;;;;5034197;28;20174;-69
2022/08/29 09:48:05;;;;;;;4.70;4.40;;;37.80;58.80;;;;;;5022156;28;20686;-69
2022/08/29 09:50:32;;;;;;;4.35;4.05;;;38.00;58.40;;;;;;5018916;28;20172;-68
2022/08/29 09:53:01;;;;;;;3.95;3.65;;;38.50;57.80;;;;;;5020303;28;20180;-69
2022/08/29 09:55:29;;;;;;;4.53;4.13;;;39.00;56.40;;;;;;5016527;28;20180;-69
2022/08/29 09:58:00;;;;;;;4.70;4.20;;;39.20;54.90;;;;;;5015706;28;20628;-69
2022/08/29 10:00:34;;;;;;;5.15;4.60;;;39.70;54.30;;;;;;5013941;28;20252;-69
2022/08/29 10:03:01;;;;;;;3.97;3.67;;;39.80;53.50;;;;;;5015844;28;20180;-69
2022/08/29 10:05:43;;;;;;;3.33;3.10;;;40.30;53.00;;;;;;5017972;28;20172;-69
2022/08/29 10:08:34;;;;;;;3.88;3.50;;;41.10;50.40;;;;;;5016090;28;20249;-70
2022/08/29 10:11:03;;;;;;;4.75;4.35;;;40.90;50.20;;;;;;5022304;28;20551;-70
2022/08/29 10:13:42;;;;;;;4.80;4.30;;;40.90;50.10;;;;;;5023703;28;20637;-69
2022/08/29 10:16:26;;;;;;;3.72;3.42;;;40.70;50.40;;;;;;5028414;28;20180;-69
2022/08/29 10:19:01;;;;;;;4.88;3.97;;;41.30;48.70;;;;;;5026783;28;20248;-69
2022/08/29 10:21:33;;;;;;;4.65;4.03;;;41.70;48.10;;;;;;5029786;28;20176;-70
2022/08/29 10:24:23;;;;;;;4.57;4.13;;;41.90;48.20;;;;;;5021198;28;20202;-70
2022/08/29 10:26:58;;;;;;;5.00;4.60;;;42.40;47.40;;;;;;5021250;28;20901;-69
2022/08/29 10:29:38;;;;;;;4.15;3.75;;;42.70;46.20;;;;;;5023156;28;20704;-70
2022/08/29 10:32:26;;;;;;;4.47;4.07;;;42.80;46.80;;;;;;5019849;28;20195;-69
2022/08/29 10:35:11;;;;;;;4.07;3.75;;;42.40;46.60;;;;;;5020725;28;20655;-69
2022/08/29 10:37:45;;;;;;;4.00;3.70;;;42.30;46.30;;;;;;5016027;28;20208;-70
2022/08/29 10:40:26;;;;;;;3.63;3.42;;;42.60;46.50;;;;;;5021304;28;20258;-71
2022/08/29 10:43:11;;;;;;;3.67;3.40;;;42.70;46.70;;;;;;5015685;28;20191;-69
2022/08/29 10:45:57;;;;;;;3.80;3.50;;;43.50;45.50;;;;;;5021475;28;20250;-69
2022/08/29 10:48:30;;;;;;;3.70;3.40;;;43.60;45.10;;;;;;5017205;28;20207;-68
2022/08/29 10:51:14;;;;;;;4.80;4.28;;;44.70;43.60;;;;;;5021310;28;20192;-69
2022/08/29 10:53:44;;;;;;;3.72;3.45;;;44.60;43.20;;;;;;5022914;28;20175;-70
2022/08/29 10:56:31;;;;;;;3.70;3.40;;;43.40;43.90;;;;;;5026128;28;20517;-69
2022/08/29 10:59:21;;;;;;;4.57;3.65;;;41.60;45.40;;;;;;5025940;28;20203;-69
2022/08/29 11:02:09;;;;;;;4.68;4.07;;;39.40;47.90;;;;;;5026523;28;20243;-69
2022/08/29 11:04:40;;;;;;;5.20;4.07;;;38.10;50.80;;;;;;5026315;28;20268;-69
2022/08/29 11:07:28;;;;;;;4.30;3.90;;;37.90;52.10;;;;;;5020455;28;20184;-70
2022/08/29 11:09:59;;;;;;;4.20;3.90;;;38.20;51.50;;;;;;5020457;28;20200;-70
2022/08/29 11:12:54;;;;;;;6.30;3.95;;;36.90;52.70;;;;;;5027225;28;20603;-74
2022/08/29 11:15:43;;;;;;;3.80;3.38;;;35.40;55.70;;;;;;5021339;28;20191;-69
2022/08/29 11:18:24;;;;;;;5.45;4.05;;;34.80;56.50;;;;;;5012258;28;20782;-70
2022/08/29 11:20:55;;;;;;;3.95;3.63;;;34.20;57.40;;;;;;5024349;28;20215;-70
2022/08/29 11:23:37;;;;;;;4.20;3.78;;;34.60;57.60;;;;;;5020886;28;20180;-70
2022/08/29 11:26:21;;;;;;;5.05;3.70;;;34.70;55.50;;;;;;5017118;28;20219;-70
2022/08/29 11:29:17;;;;;;;5.15;3.70;;;33.90;57.20;;;;;;5019072;28;20199;-70
2022/08/29 11:31:49;;;;;;;4.13;3.42;;;33.80;57.10;;;;;;5016921;28;20219;-70
2022/08/29 11:34:26;;;;;;;4.70;3.85;;;34.40;57.10;;;;;;5021393;28;20172;-71
2022/08/29 11:37:14;;;;;;;5.68;4.20;;;34.40;56.20;;;;;;5018855;28;20724;-71
2022/08/29 11:39:55;;;;;;;6.72;3.95;;;33.80;58.00;;;;;;5020348;28;20220;-70
2022/08/29 11:42:26;;;;;;;5.32;4.22;;;33.20;56.80;;;;;;5026486;28;20226;-70
2022/08/29 11:44:54;;;;;;;6.22;4.07;;;32.40;58.80;;;;;;5020297;28;20181;-70
2022/08/29 11:47:34;;;;;;;4.97;3.78;;;31.90;60.50;;;;;;5020762;28;21084;-69
2022/08/29 11:50:14;;;;;;;3.60;3.30;;;31.50;61.70;;;;;;5024026;28;20263;-70
2022/08/29 11:53:09;;;;;;;4.47;3.70;;;31.10;62.80;;;;;;5026096;28;20651;-69
2022/08/29 11:55:42;;;;;;;5.03;3.42;;;31.10;62.40;;;;;;5024620;28;20680;-69
2022/08/29 11:58:13;;;;;;;3.78;3.47;;;31.40;61.60;;;;;;5020471;28;20290;-70
2022/08/29 12:00:43;;;;;;;4.10;3.55;;;31.40;58.90;;;;;;5015451;28;20181;-69
2022/08/29 12:03:45;;;;;;;3.72;3.33;;;31.20;61.30;;;;;;5021002;28;20258;-74
2022/08/29 12:06:24;;;;;;;4.07;3.70;;;31.00;61.70;;;;;;5026893;28;20183;-74
2022/08/29 12:08:52;;;;;;;4.57;4.10;;;31.00;62.10;;;;;;5031569;28;20215;-75
2022/08/29 12:11:18;;;;;;;4.93;4.05;;;30.70;62.70;;;;;;5024169;28;20183;-74
2022/08/29 12:13:47;;;;;;;4.35;3.95;;;30.50;63.90;;;;;;5029134;28;20647;-74
2022/08/29 12:16:49;;;;;;;3.97;3.47;;;30.10;65.80;;;;;;5031432;28;20587;-74
2022/08/29 12:19:45;;;;;;;4.25;3.60;;;30.10;66.10;;;;;;5030543;28;20219;-73
2022/08/29 12:22:46;;;;;;;5.07;4.35;;;31.60;65.50;;;;;;5024375;28;20184;-73
2022/08/29 12:25:43;;;;;;;3.80;3.45;;;34.30;59.00;;;;;;5027382;28;20222;-74
2022/08/29 12:28:14;;;;;;;4.35;3.95;;;36.60;54.30;;;;;;5019609;28;20429;-74
2022/08/29 12:30:45;;;;;;;3.55;3.25;;;36.90;52.60;;;;;;5015046;28;20215;-73
2022/08/29 12:33:21;;;;;;;5.30;3.53;;;35.90;53.50;;;;;;5027439;28;20184;-75
2022/08/29 12:36:07;;;;;;;5.07;3.50;;;34.60;56.20;;;;;;5020541;28;20187;-75
2022/08/29 12:39:00;;;;;;;3.97;3.58;;;34.10;55.90;;;;;;5015398;28;20219;-75
2022/08/29 12:41:26;;;;;;;4.63;3.38;;;34.10;55.40;;;;;;5019811;28;20184;-75
2022/08/29 12:43:55;;;;;;;3.80;3.50;;;33.70;55.90;;;;;;5027633;28;20180;-76
2022/08/29 12:46:27;;;;;;;3.58;3.33;;;32.90;57.20;;;;;;5023142;28;20176;-74
2022/08/29 12:49:01;;;;;;;5.28;3.85;;;32.20;59.20;;;;;;5018099;28;20205;-73
2022/08/29 12:51:37;;;;;;;5.15;4.13;;;31.50;62.00;;;;;;5017234;28;20187;-75
2022/08/29 12:54:04;;;;;;;5.10;3.55;;;30.70;64.90;;;;;;5021793;28;20279;-75
2022/08/29 12:56:30;;;;;;;3.55;3.25;;;30.30;64.30;;;;;;5024298;28;20271;-76
2022/08/29 12:58:59;;;;;;;4.38;3.22;;;30.40;65.60;;;;;;5021777;28;20235;-73
2022/08/29 13:01:36;;;;;;;4.30;3.42;;;30.90;62.90;;;;;;5021866;28;20698;-76
2022/08/29 13:04:16;;;;;;;4.65;3.42;;;31.20;61.60;;;;;;5027792;28;20229;-76
2022/08/29 13:07:01;;;;;;;5.13;3.75;;;31.40;61.20;;;;;;5029251;28;20176;-73